sensor_id;sensor_type;location;lat;lon;timestamp;pressure;altitude;pressure_sealevel;temperature;humidity
76794;BME280;65745;50.278;18.192;2022-12-29T00:02:00;99759.59;;;3.17;69.04
76794;BME280;65745;50.278;18.192;2022-12-29T00:04:32;99754.39;;;3.22;68.60
76794;BME280;65745;50.278;18.192;2022-12-29T00:07:05;99745.87;;;3.25;68.36
76794;BME280;65745;50.278;18.192;2022-12-29T00:09:38;99739.31;;;3.28;67.94
76794;BME280;65745;50.278;18.192;2022-12-29T00:12:10;99734.86;;;3.30;67.77
76794;BME280;65745;50.278;18.192;2022-12-29T00:14:46;99731.39;;;3.33;67.81
76794;BME280;65745;50.278;18.192;2022-12-29T00:17:36;99722.35;;;3.36;67.63
76794;BME280;65745;50.278;18.192;2022-12-29T00:20:15;99720.77;;;3.39;68.13
76794;BME280;65745;50.278;18.192;2022-12-29T00:23:07;99723.50;;;3.47;68.92
76794;BME280;65745;50.278;18.192;2022-12-29T00:25:58;99709.41;;;3.55;68.54
76794;BME280;65745;50.278;18.192;2022-12-29T00:28:48;99706.00;;;3.62;68.11
76794;BME280;65745;50.278;18.192;2022-12-29T00:31:39;99710.83;;;3.68;67.43
76794;BME280;65745;50.278;18.192;2022-12-29T00:34:29;99711.99;;;3.75;66.93
76794;BME280;65745;50.278;18.192;2022-12-29T00:37:19;99716.52;;;3.81;66.81
76794;BME280;65745;50.278;18.192;2022-12-29T00:40:15;99727.17;;;3.79;66.87
76794;BME280;65745;50.278;18.192;2022-12-29T00:43:05;99731.92;;;3.79;66.83
76794;BME280;65745;50.278;18.192;2022-12-29T00:45:55;99726.02;;;3.80;66.98
76794;BME280;65745;50.278;18.192;2022-12-29T00:48:27;99724.70;;;3.81;66.84
76794;BME280;65745;50.278;18.192;2022-12-29T00:51:18;99731.54;;;3.78;66.77
76794;BME280;65745;50.278;18.192;2022-12-29T00:53:53;99742.09;;;3.78;67.03
76794;BME280;65745;50.278;18.192;2022-12-29T00:56:26;99746.23;;;3.79;67.16
76794;BME280;65745;50.278;18.192;2022-12-29T00:59:01;99742.96;;;3.86;67.84
76794;BME280;65745;50.278;18.192;2022-12-29T01:01:34;99736.26;;;3.96;67.52
76794;BME280;65745;50.278;18.192;2022-12-29T01:04:07;99729.21;;;4.03;66.92
76794;BME280;65745;50.278;18.192;2022-12-29T01:06:40;99732.42;;;4.06;66.59
76794;BME280;65745;50.278;18.192;2022-12-29T01:09:20;99732.56;;;4.06;66.47
76794;BME280;65745;50.278;18.192;2022-12-29T01:12:19;99730.66;;;4.05;66.33
76794;BME280;65745;50.278;18.192;2022-12-29T01:15:17;99723.13;;;4.04;66.14
76794;BME280;65745;50.278;18.192;2022-12-29T01:17:52;99711.15;;;3.99;66.32
76794;BME280;65745;50.278;18.192;2022-12-29T01:20:24;99696.17;;;3.95;66.30
76794;BME280;65745;50.278;18.192;2022-12-29T01:22:58;99688.54;;;3.92;66.74
76794;BME280;65745;50.278;18.192;2022-12-29T01:25:31;99676.44;;;3.96;67.42
76794;BME280;65745;50.278;18.192;2022-12-29T01:28:04;99667.80;;;4.01;67.21
76794;BME280;65745;50.278;18.192;2022-12-29T01:31:01;99658.45;;;4.02;67.10
76794;BME280;65745;50.278;18.192;2022-12-29T01:33:33;99648.77;;;4.03;66.83
76794;BME280;65745;50.278;18.192;2022-12-29T01:36:07;99651.80;;;4.02;66.68
76794;BME280;65745;50.278;18.192;2022-12-29T01:38:42;99662.13;;;4.00;66.83
76794;BME280;65745;50.278;18.192;2022-12-29T01:41:16;99667.73;;;3.99;66.53
76794;BME280;65745;50.278;18.192;2022-12-29T01:43:50;99668.14;;;3.97;66.66
76794;BME280;65745;50.278;18.192;2022-12-29T01:46:28;99665.70;;;4.00;67.82
76794;BME280;65745;50.278;18.192;2022-12-29T01:49:09;99674.61;;;4.01;67.50
76794;BME280;65745;50.278;18.192;2022-12-29T01:51:50;99690.63;;;4.01;67.26
76794;BME280;65745;50.278;18.192;2022-12-29T01:54:26;99692.77;;;3.99;66.95
76794;BME280;65745;50.278;18.192;2022-12-29T01:57:03;99692.30;;;3.97;66.80
76794;BME280;65745;50.278;18.192;2022-12-29T01:59:46;99706.41;;;3.92;67.02
76794;BME280;65745;50.278;18.192;2022-12-29T02:02:21;99698.73;;;3.88;67.02
76794;BME280;65745;50.278;18.192;2022-12-29T02:04:54;99703.31;;;3.87;66.96
76794;BME280;65745;50.278;18.192;2022-12-29T02:07:34;99700.91;;;3.82;67.33
76794;BME280;65745;50.278;18.192;2022-12-29T02:10:07;99700.27;;;3.83;68.18
76794;BME280;65745;50.278;18.192;2022-12-29T02:12:40;99704.71;;;3.88;68.23
76794;BME280;65745;50.278;18.192;2022-12-29T02:15:12;99713.09;;;3.89;67.75
76794;BME280;65745;50.278;18.192;2022-12-29T02:18:06;99710.00;;;3.88;67.37
76794;BME280;65745;50.278;18.192;2022-12-29T02:27:01;99685.92;;;3.75;67.40
76794;BME280;65745;50.278;18.192;2022-12-29T02:30:04;99683.56;;;3.67;67.47
76794;BME280;65745;50.278;18.192;2022-12-29T02:32:49;99685.89;;;3.66;67.24
76794;BME280;65745;50.278;18.192;2022-12-29T02:35:33;99683.52;;;3.63;67.40
76794;BME280;65745;50.278;18.192;2022-12-29T02:38:18;99678.03;;;3.62;67.48
76794;BME280;65745;50.278;18.192;2022-12-29T02:40:58;99681.02;;;3.64;68.36
76794;BME280;65745;50.278;18.192;2022-12-29T02:43:38;99679.98;;;3.67;68.81
76794;BME280;65745;50.278;18.192;2022-12-29T02:46:21;99677.74;;;3.67;68.64
76794;BME280;65745;50.278;18.192;2022-12-29T02:49:08;99672.15;;;3.64;68.16
76794;BME280;65745;50.278;18.192;2022-12-29T02:51:53;99660.69;;;3.59;68.17
76794;BME280;65745;50.278;18.192;2022-12-29T02:54:27;99653.16;;;3.54;67.85
76794;BME280;65745;50.278;18.192;2022-12-29T02:57:30;99638.30;;;3.53;67.81
76794;BME280;65745;50.278;18.192;2022-12-29T03:00:07;99634.56;;;3.53;67.62
76794;BME280;65745;50.278;18.192;2022-12-29T03:06:01;99620.02;;;3.59;68.09
76794;BME280;65745;50.278;18.192;2022-12-29T03:08:55;99623.84;;;3.65;67.33
76794;BME280;65745;50.278;18.192;2022-12-29T03:11:50;99617.86;;;3.64;67.46
76794;BME280;65745;50.278;18.192;2022-12-29T03:14:58;99609.67;;;3.64;67.12
76794;BME280;65745;50.278;18.192;2022-12-29T03:17:54;99603.27;;;3.70;66.82
76794;BME280;65745;50.278;18.192;2022-12-29T03:20:36;99603.58;;;3.73;66.64
76794;BME280;65745;50.278;18.192;2022-12-29T03:23:23;99598.44;;;3.80;66.70
76794;BME280;65745;50.278;18.192;2022-12-29T03:25:58;99591.19;;;3.91;66.94
76794;BME280;65745;50.278;18.192;2022-12-29T03:28:40;99588.16;;;3.96;66.43
76794;BME280;65745;50.278;18.192;2022-12-29T03:31:19;99593.58;;;3.95;66.17
76794;BME280;65745;50.278;18.192;2022-12-29T03:33:54;99596.52;;;3.92;66.29
76794;BME280;65745;50.278;18.192;2022-12-29T03:36:30;99593.99;;;3.92;65.92
76794;BME280;65745;50.278;18.192;2022-12-29T03:39:25;99597.30;;;3.90;65.96
76794;BME280;65745;50.278;18.192;2022-12-29T03:42:05;99597.58;;;3.88;65.95
76794;BME280;65745;50.278;18.192;2022-12-29T03:44:46;99597.23;;;3.84;66.36
76794;BME280;65745;50.278;18.192;2022-12-29T03:47:19;99596.01;;;3.87;67.04
76794;BME280;65745;50.278;18.192;2022-12-29T03:49:52;99585.08;;;3.95;66.28
76794;BME280;65745;50.278;18.192;2022-12-29T03:52:25;99576.64;;;3.97;66.07
76794;BME280;65745;50.278;18.192;2022-12-29T03:55:01;99568.25;;;3.96;66.15
76794;BME280;65745;50.278;18.192;2022-12-29T03:57:34;99570.71;;;3.94;66.15
76794;BME280;65745;50.278;18.192;2022-12-29T04:00:11;99571.88;;;3.97;65.85
76794;BME280;65745;50.278;18.192;2022-12-29T04:02:49;99571.31;;;3.96;65.59
76794;BME280;65745;50.278;18.192;2022-12-29T04:05:24;99573.30;;;3.94;66.08
76794;BME280;65745;50.278;18.192;2022-12-29T04:07:59;99563.77;;;3.95;66.75
76794;BME280;65745;50.278;18.192;2022-12-29T04:10:31;99560.88;;;3.99;66.94
76794;BME280;65745;50.278;18.192;2022-12-29T04:13:06;99554.79;;;4.00;66.53
76794;BME280;65745;50.278;18.192;2022-12-29T04:15:51;99548.46;;;4.00;66.52
76794;BME280;65745;50.278;18.192;2022-12-29T04:18:23;99540.46;;;4.00;66.08
76794;BME280;65745;50.278;18.192;2022-12-29T04:20:56;99525.66;;;4.00;66.10
76794;BME280;65745;50.278;18.192;2022-12-29T04:23:33;99531.61;;;3.96;66.37
76794;BME280;65745;50.278;18.192;2022-12-29T04:26:08;99534.58;;;3.93;66.61
76794;BME280;65745;50.278;18.192;2022-12-29T04:28:53;99541.12;;;3.91;67.80
76794;BME280;65745;50.278;18.192;2022-12-29T04:31:35;99544.21;;;3.87;67.57
76794;BME280;65745;50.278;18.192;2022-12-29T04:34:07;99545.80;;;3.84;67.53
76794;BME280;65745;50.278;18.192;2022-12-29T04:36:53;99543.17;;;3.78;67.72
76794;BME280;65745;50.278;18.192;2022-12-29T04:39:25;99550.34;;;3.75;67.47
76794;BME280;65745;50.278;18.192;2022-12-29T04:41:58;99544.45;;;3.72;67.56
76794;BME280;65745;50.278;18.192;2022-12-29T04:44:33;99549.10;;;3.73;67.82
76794;BME280;65745;50.278;18.192;2022-12-29T04:47:41;99555.73;;;3.82;67.99
76794;BME280;65745;50.278;18.192;2022-12-29T04:50:54;99544.67;;;3.82;67.68
76794;BME280;65745;50.278;18.192;2022-12-29T04:53:28;99549.44;;;3.77;67.79
76794;BME280;65745;50.278;18.192;2022-12-29T04:56:08;99547.58;;;3.78;67.67
76794;BME280;65745;50.278;18.192;2022-12-29T04:58:47;99554.27;;;3.79;67.43
76794;BME280;65745;50.278;18.192;2022-12-29T05:01:19;99545.20;;;3.78;67.71
76794;BME280;65745;50.278;18.192;2022-12-29T05:03:52;99550.84;;;3.82;68.32
76794;BME280;65745;50.278;18.192;2022-12-29T05:06:26;99548.79;;;3.91;67.38
76794;BME280;65745;50.278;18.192;2022-12-29T05:08:59;99548.27;;;3.91;67.31
76794;BME280;65745;50.278;18.192;2022-12-29T05:11:31;99557.20;;;3.92;66.98
76794;BME280;65745;50.278;18.192;2022-12-29T05:14:10;99561.79;;;3.92;66.97
76794;BME280;65745;50.278;18.192;2022-12-29T05:16:49;99579.58;;;3.90;67.13
76794;BME280;65745;50.278;18.192;2022-12-29T05:19:21;99586.08;;;3.91;66.93
76794;BME280;65745;50.278;18.192;2022-12-29T05:21:56;99586.50;;;3.92;66.81
76794;BME280;65745;50.278;18.192;2022-12-29T05:24:32;99581.43;;;3.93;67.04
76794;BME280;65745;50.278;18.192;2022-12-29T05:27:05;99572.48;;;3.95;67.73
76794;BME280;65745;50.278;18.192;2022-12-29T05:29:51;99569.55;;;4.03;67.73
76794;BME280;65745;50.278;18.192;2022-12-29T05:32:24;99565.86;;;4.05;67.41
76794;BME280;65745;50.278;18.192;2022-12-29T05:34:57;99567.77;;;4.05;67.21
76794;BME280;65745;50.278;18.192;2022-12-29T05:37:33;99567.70;;;4.04;67.13
76794;BME280;65745;50.278;18.192;2022-12-29T05:40:08;99563.84;;;4.01;67.21
76794;BME280;65745;50.278;18.192;2022-12-29T05:42:41;99563.66;;;3.97;67.31
76794;BME280;65745;50.278;18.192;2022-12-29T05:45:35;99551.56;;;3.96;67.63
76794;BME280;65745;50.278;18.192;2022-12-29T05:48:26;99545.34;;;4.02;67.80
76794;BME280;65745;50.278;18.192;2022-12-29T05:51:22;99545.99;;;4.06;67.34
76794;BME280;65745;50.278;18.192;2022-12-29T05:53:57;99539.48;;;4.06;66.93
76794;BME280;65745;50.278;18.192;2022-12-29T05:56:30;99519.95;;;4.07;66.83
76794;BME280;65745;50.278;18.192;2022-12-29T05:59:06;99512.48;;;4.04;67.13
76794;BME280;65745;50.278;18.192;2022-12-29T06:01:38;99505.84;;;3.99;67.33
76794;BME280;65745;50.278;18.192;2022-12-29T06:04:11;99509.92;;;3.99;67.79
76794;BME280;65745;50.278;18.192;2022-12-29T06:06:44;99507.95;;;4.05;68.16
76794;BME280;65745;50.278;18.192;2022-12-29T06:09:27;99499.85;;;4.07;67.57
76794;BME280;65745;50.278;18.192;2022-12-29T06:11:59;99499.23;;;4.08;67.28
76794;BME280;65745;50.278;18.192;2022-12-29T06:14:32;99492.42;;;4.05;67.37
76794;BME280;65745;50.278;18.192;2022-12-29T06:17:06;99496.73;;;4.02;67.46
76794;BME280;65745;50.278;18.192;2022-12-29T06:19:38;99494.09;;;3.99;67.64
76794;BME280;65745;50.278;18.192;2022-12-29T06:22:19;99492.86;;;3.99;68.37
76794;BME280;65745;50.278;18.192;2022-12-29T06:24:52;99475.55;;;4.01;67.90
76794;BME280;65745;50.278;18.192;2022-12-29T06:27:30;99469.72;;;3.99;67.78
76794;BME280;65745;50.278;18.192;2022-12-29T06:30:04;99469.11;;;3.97;67.78
76794;BME280;65745;50.278;18.192;2022-12-29T06:32:37;99466.45;;;3.94;68.04
76794;BME280;65745;50.278;18.192;2022-12-29T06:35:12;99475.33;;;3.95;68.02
76794;BME280;65745;50.278;18.192;2022-12-29T06:37:55;99483.10;;;4.01;68.48
76794;BME280;65745;50.278;18.192;2022-12-29T06:40:27;99486.40;;;4.07;68.09
76794;BME280;65745;50.278;18.192;2022-12-29T06:43:18;99498.80;;;4.11;67.66
76794;BME280;65745;50.278;18.192;2022-12-29T06:46:02;99503.40;;;4.16;66.97
76794;BME280;65745;50.278;18.192;2022-12-29T06:48:39;99497.05;;;4.14;67.25
76794;BME280;65745;50.278;18.192;2022-12-29T06:51:19;99485.46;;;4.14;67.10
76794;BME280;65745;50.278;18.192;2022-12-29T06:53:52;99487.75;;;4.16;67.45
76794;BME280;65745;50.278;18.192;2022-12-29T06:59:54;99512.33;;;4.26;66.88
76794;BME280;65745;50.278;18.192;2022-12-29T07:02:29;99512.70;;;4.26;66.54
76794;BME280;65745;50.278;18.192;2022-12-29T07:05:02;99515.91;;;4.25;66.55
76794;BME280;65745;50.278;18.192;2022-12-29T07:07:38;99519.61;;;4.29;66.42
76794;BME280;65745;50.278;18.192;2022-12-29T07:10:19;99509.05;;;4.33;66.21
76794;BME280;65745;50.278;18.192;2022-12-29T07:12:54;99511.77;;;4.33;66.43
76794;BME280;65745;50.278;18.192;2022-12-29T07:15:30;99512.98;;;4.34;67.30
76794;BME280;65745;50.278;18.192;2022-12-29T07:18:03;99506.32;;;4.33;67.18
76794;BME280;65745;50.278;18.192;2022-12-29T07:20:35;99501.80;;;4.31;67.17
76794;BME280;65745;50.278;18.192;2022-12-29T07:23:07;99508.89;;;4.29;67.08
76794;BME280;65745;50.278;18.192;2022-12-29T07:25:46;99520.86;;;4.25;67.13
76794;BME280;65745;50.278;18.192;2022-12-29T07:28:21;99519.52;;;4.22;67.20
76794;BME280;65745;50.278;18.192;2022-12-29T07:30:53;99512.96;;;4.20;67.79
76794;BME280;65745;50.278;18.192;2022-12-29T07:33:27;99505.22;;;4.23;68.48
76794;BME280;65745;50.278;18.192;2022-12-29T07:36:00;99504.36;;;4.27;68.26
76794;BME280;65745;50.278;18.192;2022-12-29T07:38:35;99499.23;;;4.31;67.61
76794;BME280;65745;50.278;18.192;2022-12-29T07:41:08;99502.73;;;4.33;67.45
76794;BME280;65745;50.278;18.192;2022-12-29T07:43:41;99499.92;;;4.31;67.68
76794;BME280;65745;50.278;18.192;2022-12-29T07:46:49;99497.99;;;4.30;67.73
76794;BME280;65745;50.278;18.192;2022-12-29T07:49:26;99516.59;;;4.30;67.89
76794;BME280;65745;50.278;18.192;2022-12-29T07:51:59;99513.29;;;4.37;68.26
76794;BME280;65745;50.278;18.192;2022-12-29T07:54:31;99521.63;;;4.41;68.06
76794;BME280;65745;50.278;18.192;2022-12-29T07:57:07;99526.02;;;4.44;67.83
76794;BME280;65745;50.278;18.192;2022-12-29T07:59:46;99517.63;;;4.48;67.70
76794;BME280;65745;50.278;18.192;2022-12-29T08:02:18;99511.27;;;4.51;67.50
76794;BME280;65745;50.278;18.192;2022-12-29T08:04:54;99514.46;;;4.54;67.25
76794;BME280;65745;50.278;18.192;2022-12-29T08:07:36;99514.10;;;4.58;67.18
76794;BME280;65745;50.278;18.192;2022-12-29T08:10:22;99512.31;;;4.66;68.09
76794;BME280;65745;50.278;18.192;2022-12-29T08:12:54;99491.96;;;4.74;67.87
76794;BME280;65745;50.278;18.192;2022-12-29T08:15:27;99486.92;;;4.76;67.55
76794;BME280;65745;50.278;18.192;2022-12-29T08:18:06;99482.36;;;4.77;67.02
76794;BME280;65745;50.278;18.192;2022-12-29T08:20:57;99478.34;;;4.75;67.02
76794;BME280;65745;50.278;18.192;2022-12-29T08:23:33;99483.85;;;4.71;67.31
76794;BME280;65745;50.278;18.192;2022-12-29T08:26:07;99502.76;;;4.70;67.66
76794;BME280;65745;50.278;18.192;2022-12-29T08:28:40;99515.46;;;4.72;67.96
76794;BME280;65745;50.278;18.192;2022-12-29T08:31:15;99520.24;;;4.82;67.61
76794;BME280;65745;50.278;18.192;2022-12-29T08:33:51;99515.05;;;4.98;67.07
76794;BME280;65745;50.278;18.192;2022-12-29T08:36:27;99517.02;;;5.15;66.52
76794;BME280;65745;50.278;18.192;2022-12-29T08:39:04;99516.23;;;5.32;66.17
76794;BME280;65745;50.278;18.192;2022-12-29T08:41:37;99515.89;;;5.47;66.12
76794;BME280;65745;50.278;18.192;2022-12-29T08:44:22;99518.37;;;5.60;66.77
76794;BME280;65745;50.278;18.192;2022-12-29T08:46:59;99518.13;;;5.78;65.81
76794;BME280;65745;50.278;18.192;2022-12-29T08:49:31;99523.02;;;5.90;65.30
76794;BME280;65745;50.278;18.192;2022-12-29T08:52:05;99535.94;;;5.89;65.21
76794;BME280;65745;50.278;18.192;2022-12-29T08:54:38;99547.96;;;5.82;64.23
76794;BME280;65745;50.278;18.192;2022-12-29T08:57:10;99555.50;;;5.77;64.25
76794;BME280;65745;50.278;18.192;2022-12-29T08:59:53;99556.77;;;5.89;64.55
76794;BME280;65745;50.278;18.192;2022-12-29T09:02:26;99560.38;;;6.10;64.29
76794;BME280;65745;50.278;18.192;2022-12-29T09:04:59;99561.55;;;6.09;63.94
76794;BME280;65745;50.278;18.192;2022-12-29T09:07:32;99557.98;;;6.04;63.87
76794;BME280;65745;50.278;18.192;2022-12-29T09:10:06;99557.25;;;6.03;64.40
76794;BME280;65745;50.278;18.192;2022-12-29T09:12:39;99571.70;;;6.01;64.10
76794;BME280;65745;50.278;18.192;2022-12-29T09:15:21;99565.90;;;5.95;64.82
76794;BME280;65745;50.278;18.192;2022-12-29T09:17:54;99562.46;;;6.00;64.89
76794;BME280;65745;50.278;18.192;2022-12-29T09:20:27;99552.88;;;6.00;64.63
76794;BME280;65745;50.278;18.192;2022-12-29T09:22:59;99545.71;;;6.01;64.83
76794;BME280;65745;50.278;18.192;2022-12-29T09:25:32;99539.05;;;6.00;65.06
76794;BME280;65745;50.278;18.192;2022-12-29T09:28:05;99535.57;;;5.99;65.38
76794;BME280;65745;50.278;18.192;2022-12-29T09:30:42;99528.48;;;5.96;65.31
76794;BME280;65745;50.278;18.192;2022-12-29T09:33:24;99528.00;;;5.97;65.51
76794;BME280;65745;50.278;18.192;2022-12-29T09:36:00;99526.20;;;5.99;65.62
76794;BME280;65745;50.278;18.192;2022-12-29T09:38:32;99521.77;;;6.06;65.71
76794;BME280;65745;50.278;18.192;2022-12-29T09:41:10;99527.27;;;6.11;64.92
76794;BME280;65745;50.278;18.192;2022-12-29T09:44:06;99531.19;;;6.11;64.85
76794;BME280;65745;50.278;18.192;2022-12-29T09:46:43;99531.71;;;6.11;65.02
76794;BME280;65745;50.278;18.192;2022-12-29T09:49:25;99525.58;;;6.13;65.07
76794;BME280;65745;50.278;18.192;2022-12-29T09:52:06;99532.18;;;6.15;65.10
76794;BME280;65745;50.278;18.192;2022-12-29T09:54:58;99526.92;;;6.17;64.82
76794;BME280;65745;50.278;18.192;2022-12-29T09:57:43;99522.35;;;6.18;64.81
76794;BME280;65745;50.278;18.192;2022-12-29T10:00:27;99522.08;;;6.20;64.19
76794;BME280;65745;50.278;18.192;2022-12-29T10:03:09;99513.57;;;6.22;64.63
76794;BME280;65745;50.278;18.192;2022-12-29T10:05:50;99506.95;;;6.29;65.25
76794;BME280;65745;50.278;18.192;2022-12-29T10:08:33;99505.55;;;6.33;65.20
76794;BME280;65745;50.278;18.192;2022-12-29T10:11:16;99491.56;;;6.35;65.26
76794;BME280;65745;50.278;18.192;2022-12-29T10:14:06;99493.78;;;6.35;64.99
76794;BME280;65745;50.278;18.192;2022-12-29T10:16:54;99492.84;;;6.32;65.20
76794;BME280;65745;50.278;18.192;2022-12-29T10:19:43;99491.05;;;6.29;65.68
76794;BME280;65745;50.278;18.192;2022-12-29T10:22:28;99489.74;;;6.31;66.13
76794;BME280;65745;50.278;18.192;2022-12-29T10:25:11;99490.48;;;6.39;66.77
76794;BME280;65745;50.278;18.192;2022-12-29T10:27:45;99487.82;;;6.47;66.09
76794;BME280;65745;50.278;18.192;2022-12-29T10:30:19;99473.60;;;6.53;65.78
76794;BME280;65745;50.278;18.192;2022-12-29T10:32:55;99479.98;;;6.60;65.58
76794;BME280;65745;50.278;18.192;2022-12-29T10:35:32;99479.47;;;6.66;65.24
76794;BME280;65745;50.278;18.192;2022-12-29T10:38:13;99483.05;;;6.71;64.94
76794;BME280;65745;50.278;18.192;2022-12-29T10:40:53;99481.69;;;6.78;64.60
76794;BME280;65745;50.278;18.192;2022-12-29T10:43:30;99484.20;;;6.82;64.86
76794;BME280;65745;50.278;18.192;2022-12-29T10:46:11;99485.36;;;6.87;64.44
76794;BME280;65745;50.278;18.192;2022-12-29T10:48:45;99490.79;;;6.91;64.86
76794;BME280;65745;50.278;18.192;2022-12-29T10:51:26;99497.18;;;7.00;65.22
76794;BME280;65745;50.278;18.192;2022-12-29T10:54:03;99494.71;;;7.03;64.78
76794;BME280;65745;50.278;18.192;2022-12-29T10:56:39;99499.71;;;7.04;64.27
76794;BME280;65745;50.278;18.192;2022-12-29T10:59:23;99497.05;;;7.07;64.53
76794;BME280;65745;50.278;18.192;2022-12-29T11:02:16;99492.17;;;7.10;64.42
76794;BME280;65745;50.278;18.192;2022-12-29T11:05:01;99492.98;;;7.15;64.22
76794;BME280;65745;50.278;18.192;2022-12-29T11:07:35;99491.08;;;7.21;64.31
76794;BME280;65745;50.278;18.192;2022-12-29T11:10:29;99484.08;;;7.28;63.99
76794;BME280;65745;50.278;18.192;2022-12-29T11:13:04;99473.46;;;7.35;63.56
76794;BME280;65745;50.278;18.192;2022-12-29T11:15:52;99471.91;;;7.41;63.60
76794;BME280;65745;50.278;18.192;2022-12-29T11:18:26;99476.95;;;7.44;63.57
76794;BME280;65745;50.278;18.192;2022-12-29T11:21:01;99471.54;;;7.46;64.37
76794;BME280;65745;50.278;18.192;2022-12-29T11:23:36;99475.51;;;7.54;64.07
76794;BME280;65745;50.278;18.192;2022-12-29T11:26:23;99482.63;;;7.58;63.70
76794;BME280;65745;50.278;18.192;2022-12-29T11:29:27;99495.45;;;7.63;63.66
76794;BME280;65745;50.278;18.192;2022-12-29T11:32:00;99500.33;;;7.67;63.49
76794;BME280;65745;50.278;18.192;2022-12-29T11:34:43;99503.55;;;7.66;63.01
76794;BME280;65745;50.278;18.192;2022-12-29T11:37:29;99500.16;;;7.60;63.47
76794;BME280;65745;50.278;18.192;2022-12-29T11:40:03;99503.00;;;7.57;63.53
76794;BME280;65745;50.278;18.192;2022-12-29T11:42:42;99495.88;;;7.54;63.57
76794;BME280;65745;50.278;18.192;2022-12-29T11:45:27;99493.36;;;7.49;63.88
76794;BME280;65745;50.278;18.192;2022-12-29T11:48:08;99482.10;;;7.44;64.18
76794;BME280;65745;50.278;18.192;2022-12-29T11:50:50;99469.83;;;7.40;64.99
76794;BME280;65745;50.278;18.192;2022-12-29T11:53:25;99463.88;;;7.41;65.03
76794;BME280;65745;50.278;18.192;2022-12-29T11:56:01;99453.62;;;7.43;64.29
76794;BME280;65745;50.278;18.192;2022-12-29T11:58:38;99453.94;;;7.41;64.07
76794;BME280;65745;50.278;18.192;2022-12-29T12:01:27;99456.60;;;7.39;63.30
76794;BME280;65745;50.278;18.192;2022-12-29T12:04:08;99453.65;;;7.37;63.43
76794;BME280;65745;50.278;18.192;2022-12-29T12:06:59;99450.76;;;7.38;63.16
76794;BME280;65745;50.278;18.192;2022-12-29T12:09:37;99442.50;;;7.36;63.43
76794;BME280;65745;50.278;18.192;2022-12-29T12:12:47;99456.83;;;7.34;63.62
76794;BME280;65745;50.278;18.192;2022-12-29T12:15:31;99461.11;;;7.34;63.50
76794;BME280;65745;50.278;18.192;2022-12-29T12:18:24;99451.01;;;7.34;63.94
76794;BME280;65745;50.278;18.192;2022-12-29T12:21:08;99434.94;;;7.36;64.66
76794;BME280;65745;50.278;18.192;2022-12-29T12:23:51;99439.61;;;7.44;65.32
76794;BME280;65745;50.278;18.192;2022-12-29T12:26:30;99431.75;;;7.52;64.86
76794;BME280;65745;50.278;18.192;2022-12-29T12:29:13;99419.91;;;7.58;64.50
76794;BME280;65745;50.278;18.192;2022-12-29T12:31:57;99414.23;;;7.65;64.38
76794;BME280;65745;50.278;18.192;2022-12-29T12:34:33;99411.29;;;7.71;64.11
76794;BME280;65745;50.278;18.192;2022-12-29T12:37:37;99404.93;;;7.78;63.57
76794;BME280;65745;50.278;18.192;2022-12-29T12:40:33;99402.12;;;7.82;63.98
76794;BME280;65745;50.278;18.192;2022-12-29T12:43:20;99402.47;;;7.90;63.74
76794;BME280;65745;50.278;18.192;2022-12-29T12:46:03;99403.06;;;7.93;63.71
76794;BME280;65745;50.278;18.192;2022-12-29T12:48:55;99393.73;;;7.97;63.72
76794;BME280;65745;50.278;18.192;2022-12-29T12:51:44;99387.71;;;8.04;64.31
76794;BME280;65745;50.278;18.192;2022-12-29T12:54:40;99390.91;;;8.10;63.93
76794;BME280;65745;50.278;18.192;2022-12-29T12:57:21;99392.17;;;8.13;63.49
76794;BME280;65745;50.278;18.192;2022-12-29T13:00:04;99389.23;;;8.11;63.30
76794;BME280;65745;50.278;18.192;2022-12-29T13:02:49;99391.64;;;8.12;63.31
76794;BME280;65745;50.278;18.192;2022-12-29T13:05:35;99400.23;;;8.12;63.56
76794;BME280;65745;50.278;18.192;2022-12-29T13:08:33;99395.77;;;8.12;63.38
76794;BME280;65745;50.278;18.192;2022-12-29T13:11:16;99398.27;;;8.08;63.66
76794;BME280;65745;50.278;18.192;2022-12-29T13:14:07;99400.72;;;8.03;63.91
76794;BME280;65745;50.278;18.192;2022-12-29T13:16:55;99402.52;;;8.07;64.24
76794;BME280;65745;50.278;18.192;2022-12-29T13:19:38;99398.98;;;8.10;63.52
76794;BME280;65745;50.278;18.192;2022-12-29T13:22:26;99399.66;;;8.10;63.48
76794;BME280;65745;50.278;18.192;2022-12-29T13:25:21;99398.79;;;8.10;63.17
76794;BME280;65745;50.278;18.192;2022-12-29T13:28:02;99398.96;;;8.09;63.17
76794;BME280;65745;50.278;18.192;2022-12-29T13:30:43;99397.41;;;8.09;62.84
76794;BME280;65745;50.278;18.192;2022-12-29T13:33:33;99397.91;;;8.08;63.25
76794;BME280;65745;50.278;18.192;2022-12-29T13:36:19;99401.50;;;8.07;63.38
76794;BME280;65745;50.278;18.192;2022-12-29T13:38:59;99402.67;;;8.06;63.24
76794;BME280;65745;50.278;18.192;2022-12-29T13:41:40;99407.93;;;8.04;63.74
76794;BME280;65745;50.278;18.192;2022-12-29T13:44:24;99411.84;;;8.10;64.21
76794;BME280;65745;50.278;18.192;2022-12-29T13:47:20;99412.42;;;8.13;64.26
76794;BME280;65745;50.278;18.192;2022-12-29T13:49:58;99411.65;;;8.09;64.38
76794;BME280;65745;50.278;18.192;2022-12-29T13:52:38;99414.02;;;8.07;64.25
76794;BME280;65745;50.278;18.192;2022-12-29T13:55:29;99421.82;;;8.04;64.26
76794;BME280;65745;50.278;18.192;2022-12-29T13:58:07;99420.69;;;7.99;64.63
76794;BME280;65745;50.278;18.192;2022-12-29T14:01:00;99423.02;;;7.96;64.52
76794;BME280;65745;50.278;18.192;2022-12-29T14:03:54;99431.64;;;7.98;64.03
76794;BME280;65745;50.278;18.192;2022-12-29T14:06:30;99430.34;;;8.01;63.41
76794;BME280;65745;50.278;18.192;2022-12-29T14:09:25;99438.42;;;8.02;62.77
76794;BME280;65745;50.278;18.192;2022-12-29T14:12:28;99438.98;;;7.96;62.74
76794;BME280;65745;50.278;18.192;2022-12-29T14:15:22;99449.38;;;7.94;62.55
76794;BME280;65745;50.278;18.192;2022-12-29T14:18:13;99455.12;;;7.90;62.04
76794;BME280;65745;50.278;18.192;2022-12-29T14:20:54;99470.58;;;7.84;62.18
76794;BME280;65745;50.278;18.192;2022-12-29T14:23:36;99468.22;;;7.79;62.34